createdAt,value
2019-03-13T00:01:04.114Z,94554.61
2019-03-13T00:03:32.444Z,94546.12
2019-03-13T00:06:00.866Z,94538.83
2019-03-13T00:08:29.142Z,94528.22
2019-03-13T00:10:57.606Z,94529.75
2019-03-13T00:13:25.920Z,94522.45
2019-03-13T00:15:54.328Z,94521.98
2019-03-13T00:18:23.689Z,94518.67
2019-03-13T00:20:52.025Z,94520.43
2019-03-13T00:23:20.362Z,94521.11
2019-03-13T00:25:48.725Z,94517.47
2019-03-13T00:28:17.068Z,94505.17
2019-03-13T00:30:45.494Z,94500.13
2019-03-13T00:33:13.845Z,94497.53
2019-03-13T00:35:42.175Z,94491.86
2019-03-13T00:38:10.544Z,94490.13
2019-03-13T00:40:38.885Z,94484.80
2019-03-13T00:43:07.311Z,94481.08
2019-03-13T00:45:36.610Z,94473.11
2019-03-13T00:48:05.044Z,94473.93
2019-03-13T00:50:33.419Z,94462.83
2019-03-13T00:53:01.757Z,94457.79
2019-03-13T00:55:30.111Z,94466.61
2019-03-13T00:57:58.451Z,94479.67
2019-03-13T01:00:32.356Z,94475.77
2019-03-13T01:03:00.745Z,94476.11
2019-03-13T01:05:29.192Z,94478.06
2019-03-13T01:07:57.552Z,94496.67
2019-03-13T01:10:25.984Z,94510.65
2019-03-13T01:12:54.366Z,94516.91
2019-03-13T01:17:56.956Z,94527.97
2019-03-13T01:20:25.322Z,94527.30
2019-03-13T01:22:53.669Z,94556.63
2019-03-13T01:25:22.055Z,94539.32
2019-03-13T01:27:50.389Z,94561.47
2019-03-13T01:32:50.362Z,94528.01
2019-03-13T01:37:52.888Z,94528.50
2019-03-13T01:40:21.293Z,94542.63
2019-03-13T01:42:49.651Z,94556.23
2019-03-13T01:45:18.005Z,94560.97
2019-03-13T01:47:46.409Z,94568.38
2019-03-13T01:50:14.745Z,94575.78
2019-03-13T01:52:43.115Z,94585.14
2019-03-13T01:55:11.479Z,94588.55
2019-03-13T01:57:39.832Z,94588.45
2019-03-13T02:02:43.421Z,94606.30
2019-03-13T02:05:12.704Z,94591.17
2019-03-13T02:07:41.091Z,94602.98
2019-03-13T02:10:11.052Z,94616.61
2019-03-13T02:12:39.455Z,94619.27
2019-03-13T02:15:08.717Z,94635.33
2019-03-13T02:20:11.264Z,94640.94
2019-03-13T02:22:39.623Z,94654.23
2019-03-13T02:25:08.000Z,94651.70
2019-03-13T02:27:38.772Z,94648.08
2019-03-13T02:30:12.529Z,94646.36
2019-03-13T02:32:40.815Z,94665.87
2019-03-13T02:35:09.173Z,94669.48
2019-03-13T02:37:38.497Z,94662.53
2019-03-13T02:40:07.626Z,94698.09
2019-03-13T02:42:35.946Z,94695.86
2019-03-13T02:45:04.305Z,94709.36
2019-03-13T02:47:32.643Z,94723.23
2019-03-13T02:50:01.007Z,94706.46
2019-03-13T02:52:29.357Z,94726.14
2019-03-13T02:54:57.694Z,94749.97
2019-03-13T02:57:26.166Z,94757.63
2019-03-13T02:59:54.494Z,94746.71
2019-03-13T03:02:22.947Z,94759.48
2019-03-13T03:04:51.298Z,94742.22
2019-03-13T03:07:20.237Z,94765.92
2019-03-13T03:09:48.584Z,94765.40
2019-03-13T03:12:16.951Z,94791.13
2019-03-13T03:17:21.640Z,94806.64
2019-03-13T03:19:49.985Z,94815.86
2019-03-13T03:22:18.381Z,94825.41
2019-03-13T03:24:46.693Z,94823.42
2019-03-13T03:27:15.056Z,94836.92
2019-03-13T03:29:43.386Z,94843.13
2019-03-13T03:32:12.756Z,94849.66
2019-03-13T03:34:41.121Z,94868.05
2019-03-13T03:37:09.463Z,94873.02
2019-03-13T03:39:37.806Z,94883.17
2019-03-13T03:42:06.184Z,94909.20
2019-03-13T03:44:35.476Z,94913.44
2019-03-13T03:47:03.840Z,94903.69
2019-03-13T03:49:32.198Z,94910.97
2019-03-13T03:52:00.562Z,94922.14
2019-03-13T03:54:28.911Z,94903.34
2019-03-13T03:56:57.239Z,94912.38
2019-03-13T03:59:25.612Z,94896.59
2019-03-13T04:01:53.925Z,94911.66
2019-03-13T04:06:59.579Z,94914.33
2019-03-13T04:09:27.963Z,94924.42
2019-03-13T04:11:56.320Z,94929.16
2019-03-13T04:14:24.656Z,94944.65
2019-03-13T04:16:53.038Z,94952.41
2019-03-13T04:19:21.418Z,94956.70
2019-03-13T04:21:49.771Z,94960.40
2019-03-13T04:26:52.326Z,94960.09
2019-03-13T04:29:20.672Z,94957.05
2019-03-13T04:31:49.027Z,94962.52
2019-03-13T04:34:17.356Z,94972.03
2019-03-13T04:36:45.705Z,94969.86
2019-03-13T04:39:14.976Z,94965.60
2019-03-13T04:41:43.308Z,94963.47
2019-03-13T04:46:45.976Z,94963.48
2019-03-13T04:51:51.587Z,94981.81
2019-03-13T04:54:19.968Z,94991.17
2019-03-13T04:56:48.348Z,95003.09
2019-03-13T04:59:16.715Z,95003.08
2019-03-13T05:01:45.213Z,94997.10
2019-03-13T05:04:14.575Z,95030.32
2019-03-13T05:06:42.924Z,95013.06
2019-03-13T05:09:11.271Z,95015.22
2019-03-13T05:11:39.700Z,95011.58
2019-03-13T05:14:08.031Z,95005.27
2019-03-13T05:16:36.363Z,95016.48
2019-03-13T05:19:04.802Z,95013.48
2019-03-13T05:21:33.055Z,95018.78
2019-03-13T05:24:01.435Z,95025.91
2019-03-13T05:26:29.788Z,95029.13
2019-03-13T05:28:58.170Z,95026.30
2019-03-13T05:31:26.499Z,95037.94
2019-03-13T05:36:29.037Z,95038.43
2019-03-13T05:38:57.462Z,95056.70
2019-03-13T05:41:25.813Z,95051.68
2019-03-13T05:43:54.160Z,95066.42
2019-03-13T05:46:22.526Z,95068.60
2019-03-13T05:48:50.915Z,95075.22
2019-03-13T05:51:19.245Z,95086.75
2019-03-13T05:53:47.578Z,95086.09
2019-03-13T05:56:15.940Z,95090.06
2019-03-13T05:58:44.261Z,95094.68
2019-03-13T06:01:12.616Z,95094.09
2019-03-13T06:03:40.956Z,95091.80
2019-03-13T06:06:09.289Z,95103.62
2019-03-13T06:08:37.651Z,95106.67
2019-03-13T06:11:05.998Z,95109.99
2019-03-13T06:13:34.319Z,95111.98
2019-03-13T06:16:02.677Z,95120.61
2019-03-13T06:18:31.028Z,95118.03
2019-03-13T06:20:59.367Z,95122.55
2019-03-13T06:23:27.710Z,95123.94
2019-03-13T06:25:56.051Z,95125.24
2019-03-13T06:28:24.385Z,95124.00
2019-03-13T06:30:52.743Z,95127.80
2019-03-13T06:35:55.355Z,95136.69
2019-03-13T06:38:23.679Z,95136.16
2019-03-13T06:40:52.024Z,95135.41
2019-03-13T06:43:20.356Z,95131.92
2019-03-13T06:45:48.785Z,95128.70
2019-03-13T06:48:17.091Z,95134.50
2019-03-13T06:50:45.441Z,95132.78
2019-03-13T06:53:13.772Z,95127.80
2019-03-13T06:55:42.251Z,95128.07
2019-03-13T06:58:10.611Z,95128.32
2019-03-13T07:09:21.584Z,95140.38
2019-03-13T07:11:55.332Z,95128.80
2019-03-13T07:14:24.209Z,95128.80
2019-03-13T07:16:52.536Z,95128.31
2019-03-13T07:22:14.272Z,95139.25
2019-03-13T07:24:54.346Z,95128.89
2019-03-13T07:27:34.441Z,95134.57
2019-03-13T07:30:05.509Z,95134.30
2019-03-13T07:32:37.187Z,95141.86
2019-03-13T07:38:02.546Z,95142.09
2019-03-13T07:40:42.541Z,95135.70
2019-03-13T07:48:42.430Z,95131.11
2019-03-13T07:51:14.553Z,95137.13
2019-03-13T07:53:45.782Z,95142.07
2019-03-13T07:56:15.016Z,95145.70
2019-03-13T08:01:19.920Z,95144.95
2019-03-13T08:03:49.184Z,95146.77
2019-03-13T08:06:23.014Z,95143.11
2019-03-13T08:08:56.788Z,95147.15
2019-03-13T08:11:40.005Z,95145.98
2019-03-13T08:14:10.161Z,95140.73
2019-03-13T08:16:42.316Z,95149.14
2019-03-13T08:24:47.984Z,95134.16
2019-03-13T08:29:56.039Z,95147.34
2019-03-13T08:32:26.252Z,95133.66
2019-03-13T08:35:00.003Z,95133.50
2019-03-13T08:37:30.105Z,95133.05
2019-03-13T08:50:35.202Z,95113.49
2019-03-13T08:53:06.273Z,95120.41
2019-03-13T08:55:34.612Z,95124.94
2019-03-13T08:58:06.884Z,95130.59
2019-03-13T09:06:11.123Z,95126.27
2019-03-13T09:08:41.137Z,95141.69
2019-03-13T09:11:10.180Z,95119.33
2019-03-13T09:13:43.900Z,95116.09
2019-03-13T09:16:22.973Z,95118.61
2019-03-13T09:24:40.598Z,95105.00
2019-03-13T09:27:12.167Z,95098.16
2019-03-13T09:29:44.871Z,95104.67
2019-03-13T09:34:49.650Z,95108.70
2019-03-13T09:37:20.323Z,95091.91
2019-03-13T09:40:04.504Z,95114.02
2019-03-13T09:42:38.442Z,95095.84
2019-03-13T09:45:08.704Z,95089.12
2019-03-13T09:50:40.119Z,95076.11
2019-03-13T09:53:09.334Z,95081.44
2019-03-13T09:55:37.721Z,95079.88
2019-03-13T09:58:08.010Z,95087.63
2019-03-13T10:00:38.597Z,95108.77
2019-03-13T10:06:05.111Z,95064.67
2019-03-13T10:11:26.592Z,95071.83
2019-03-13T10:14:00.826Z,95072.66
2019-03-13T10:19:09.100Z,95083.30
2019-03-13T10:21:39.722Z,95071.70
2019-03-13T10:24:10.417Z,95089.30
2019-03-13T10:26:55.512Z,95071.77
2019-03-13T10:32:04.041Z,95057.45
2019-03-13T10:39:46.792Z,95043.52
2019-03-13T10:44:50.885Z,95038.29
2019-03-13T10:47:19.973Z,95031.86
2019-03-13T10:50:02.093Z,95015.29
2019-03-13T10:52:36.274Z,95032.18
2019-03-13T10:55:05.818Z,95004.89
2019-03-13T10:57:34.189Z,95005.67
2019-03-13T11:00:07.449Z,94997.22
2019-03-13T11:02:50.672Z,95019.06
2019-03-13T11:05:19.058Z,95007.55
2019-03-13T11:07:58.321Z,95013.39
2019-03-13T11:13:03.184Z,95018.44
2019-03-13T11:18:31.600Z,95094.19
2019-03-13T11:21:00.860Z,95116.21
2019-03-13T11:23:29.535Z,95117.09
2019-03-13T11:25:57.908Z,95087.33
2019-03-13T11:28:41.104Z,95074.97
2019-03-13T11:33:54.244Z,95050.52
2019-03-13T11:38:57.787Z,95038.31
2019-03-13T11:41:31.520Z,95040.27
2019-03-13T11:43:59.848Z,95038.53
2019-03-13T11:49:35.219Z,95017.44
2019-03-13T11:52:03.566Z,95011.62
2019-03-13T11:54:36.293Z,95006.92
2019-03-13T11:57:14.532Z,94989.48
2019-03-13T11:59:44.223Z,94989.62
2019-03-13T12:02:15.320Z,94974.39
2019-03-13T12:07:23.505Z,94955.48
2019-03-13T12:12:28.480Z,94945.20
2019-03-13T12:17:38.118Z,94941.12
2019-03-13T12:20:10.864Z,94956.45
2019-03-13T12:22:44.622Z,94947.98
2019-03-13T12:27:50.160Z,94949.89
2019-03-13T12:30:18.547Z,94953.74
2019-03-13T12:35:46.713Z,94957.01
2019-03-13T12:38:31.733Z,94914.34
2019-03-13T12:46:50.524Z,94940.39
2019-03-13T12:51:58.731Z,94909.11
2019-03-13T12:57:20.769Z,94896.50
2019-03-13T13:09:11.675Z,94917.97
2019-03-13T13:11:44.996Z,94920.27
2019-03-13T13:14:16.824Z,94918.02
2019-03-13T13:19:21.416Z,94898.30
2019-03-13T13:27:03.957Z,94935.33
2019-03-13T13:29:33.250Z,94965.65
2019-03-13T13:32:01.567Z,94922.59
2019-03-13T13:34:29.945Z,94927.83
2019-03-13T13:36:58.285Z,94926.41
2019-03-13T13:39:26.653Z,94920.78
2019-03-13T13:41:54.995Z,94929.59
2019-03-13T13:44:23.403Z,94927.89
2019-03-13T13:46:51.749Z,94925.61
2019-03-13T13:49:20.094Z,94937.63
2019-03-13T13:51:48.437Z,94941.25
2019-03-13T13:54:16.781Z,94936.78
2019-03-13T13:58:03.411Z,94913.94
2019-03-13T14:00:31.771Z,94917.44
2019-03-13T14:03:00.150Z,94930.69
2019-03-13T14:05:28.510Z,94920.84
2019-03-13T14:07:56.921Z,94913.11
2019-03-13T14:10:25.286Z,94913.38
2019-03-13T14:12:53.649Z,94916.41
2019-03-13T14:15:22.921Z,94911.06
2019-03-13T14:17:52.213Z,94916.10
2019-03-13T14:20:20.552Z,94910.13
2019-03-13T14:25:50.727Z,94921.36
2019-03-13T14:28:36.336Z,94922.80
2019-03-13T14:31:04.712Z,94932.38
2019-03-13T14:33:36.534Z,94928.53
2019-03-13T14:36:04.893Z,94930.75
2019-03-13T14:38:51.625Z,94933.23
2019-03-13T14:41:36.599Z,94935.66
2019-03-13T14:44:04.879Z,94921.73
2019-03-13T14:46:33.282Z,94919.58
2019-03-13T14:49:01.642Z,94922.59
2019-03-13T14:51:44.857Z,94918.97
2019-03-13T14:54:16.245Z,94913.55
2019-03-13T14:56:51.955Z,94922.34
2019-03-13T14:59:20.301Z,94928.32
2019-03-13T15:01:52.225Z,94938.52
2019-03-13T15:04:20.685Z,94943.69
2019-03-13T15:06:52.281Z,94955.63
2019-03-13T15:11:54.832Z,94953.27
2019-03-13T15:14:24.172Z,94958.06
2019-03-13T15:16:53.369Z,94964.34
2019-03-13T15:19:20.944Z,94967.45
2019-03-13T15:21:50.190Z,94970.68
2019-03-13T15:24:19.428Z,94969.31
2019-03-13T15:26:47.773Z,94958.38
2019-03-13T15:29:16.146Z,94926.23
2019-03-13T15:31:44.489Z,94929.10
2019-03-13T15:34:12.828Z,94936.01
2019-03-13T15:39:19.502Z,94937.52
2019-03-13T15:41:47.940Z,94918.42
2019-03-13T15:46:45.156Z,94915.01
2019-03-13T15:49:13.457Z,94916.69
2019-03-13T15:51:41.817Z,94922.67
2019-03-13T15:54:10.174Z,94916.97
2019-03-13T15:56:38.527Z,94923.23
2019-03-13T15:59:06.862Z,94916.19
2019-03-13T16:01:35.220Z,94915.71
2019-03-13T16:04:03.520Z,94923.70
2019-03-13T16:06:31.870Z,94918.59
2019-03-13T16:09:03.226Z,94917.64
2019-03-13T16:11:31.608Z,94933.13
2019-03-13T16:13:59.949Z,94930.61
2019-03-13T16:16:28.486Z,94928.53
2019-03-13T16:18:56.803Z,94922.56
2019-03-13T16:21:25.203Z,94930.22
2019-03-13T16:23:53.543Z,94930.71
2019-03-13T16:26:21.899Z,94924.18
2019-03-13T16:28:50.241Z,94921.78
2019-03-13T16:31:18.584Z,94916.45
2019-03-13T16:33:47.071Z,94922.20
2019-03-13T16:36:15.438Z,94939.84
2019-03-13T16:38:43.873Z,94953.86
2019-03-13T16:43:46.451Z,94948.47
2019-03-13T16:46:14.803Z,94931.42
2019-03-13T16:48:43.128Z,94942.85
2019-03-13T16:53:45.675Z,94945.38
2019-03-13T16:56:14.004Z,94952.91
2019-03-13T16:58:42.357Z,94938.57
2019-03-13T17:01:10.678Z,94954.28
2019-03-13T17:06:15.244Z,94938.10
2019-03-13T17:08:43.663Z,94934.25
2019-03-13T17:11:11.987Z,94930.73
2019-03-13T17:13:40.333Z,94935.50
2019-03-13T17:16:08.676Z,94936.93
2019-03-13T17:18:37.009Z,94939.75
2019-03-13T17:21:05.382Z,94924.75
2019-03-13T17:23:34.711Z,94920.78
2019-03-13T17:26:03.990Z,94927.74
2019-03-13T17:28:32.345Z,94928.83
2019-03-13T17:31:00.695Z,94922.89
2019-03-13T17:33:29.034Z,94919.48
2019-03-13T17:35:57.376Z,94912.48
2019-03-13T17:38:25.732Z,94916.78
2019-03-13T17:40:54.085Z,94923.27
2019-03-13T17:45:56.707Z,94921.78
2019-03-13T17:48:25.062Z,94912.01
2019-03-13T17:50:53.401Z,94918.20
2019-03-13T17:55:55.979Z,94910.77
2019-03-13T17:58:25.277Z,94911.08
2019-03-13T18:00:53.866Z,94908.41
2019-03-13T18:03:22.224Z,94911.50
2019-03-13T18:05:50.545Z,94905.66
2019-03-13T18:08:20.844Z,94906.02
2019-03-13T18:10:49.185Z,94905.42
2019-03-13T18:13:17.530Z,94904.92
2019-03-13T18:15:45.968Z,94906.48
2019-03-13T18:18:14.305Z,94907.94
2019-03-13T18:20:42.659Z,94915.44
2019-03-13T18:23:11.026Z,94917.40
2019-03-13T18:25:39.361Z,94917.61
2019-03-13T18:30:41.894Z,94918.78
2019-03-13T18:33:10.244Z,94912.33
2019-03-13T18:38:12.814Z,94906.02
2019-03-13T18:40:41.148Z,94902.76
2019-03-13T18:43:09.505Z,94926.12
2019-03-13T18:45:37.866Z,94918.13
2019-03-13T18:48:06.219Z,94920.47
2019-03-13T18:50:34.558Z,94910.80
2019-03-13T18:53:02.904Z,94920.05
2019-03-13T18:55:33.155Z,94917.52
2019-03-13T18:58:01.521Z,94930.80
2019-03-13T19:00:30.611Z,94927.39
2019-03-13T19:02:58.968Z,94930.16
2019-03-13T19:08:05.579Z,94932.91
2019-03-13T19:10:33.944Z,94938.69
2019-03-13T19:15:39.841Z,94914.84
2019-03-13T19:18:06.953Z,94937.61
2019-03-13T19:20:35.332Z,94918.66
2019-03-13T19:25:37.898Z,94918.01
2019-03-13T19:28:06.242Z,94923.33
2019-03-13T19:30:37.602Z,94945.98
2019-03-13T19:33:03.094Z,94917.53
2019-03-13T19:35:31.666Z,94928.52
2019-03-13T19:40:39.146Z,94925.03
2019-03-13T19:43:07.491Z,94924.94
2019-03-13T19:45:37.784Z,94919.75
2019-03-13T19:48:07.051Z,94901.48
2019-03-13T19:50:35.380Z,94914.90
2019-03-13T19:53:03.750Z,94909.61
2019-03-13T19:55:32.109Z,94908.75
2019-03-13T19:58:00.462Z,94898.46
2019-03-13T20:00:28.888Z,94893.55
2019-03-13T20:05:44.252Z,94906.97
2019-03-13T20:07:59.703Z,94918.07
2019-03-13T20:10:28.864Z,94926.64
2019-03-13T20:12:57.205Z,94922.23
2019-03-13T20:15:27.244Z,94922.30
2019-03-13T20:17:55.599Z,94928.25
2019-03-13T20:20:23.942Z,94934.98
2019-03-13T20:23:02.144Z,94917.20
2019-03-13T20:25:30.480Z,94912.34
2019-03-13T20:27:58.857Z,94927.55
2019-03-13T20:30:27.189Z,94925.41
2019-03-13T20:32:56.476Z,94939.87
2019-03-13T20:35:24.885Z,94930.26
2019-03-13T20:37:53.204Z,94941.40
2019-03-13T20:40:21.556Z,94938.26
2019-03-13T20:45:25.623Z,94977.44
2019-03-13T20:47:53.932Z,94948.47
2019-03-13T20:50:35.275Z,94952.00
2019-03-13T20:52:50.687Z,94942.86
2019-03-13T20:55:19.026Z,94935.45
2019-03-13T20:57:47.388Z,94937.36
2019-03-13T21:00:22.049Z,94935.30
2019-03-13T21:02:50.367Z,94947.38
2019-03-13T21:07:53.064Z,94932.81
2019-03-13T21:10:21.320Z,94952.59
2019-03-13T21:12:49.688Z,94940.48
2019-03-13T21:15:19.356Z,94943.27
2019-03-13T21:17:47.692Z,94962.20
2019-03-13T21:20:16.057Z,94959.03
2019-03-13T21:22:45.326Z,94956.77
2019-03-13T21:25:16.603Z,94937.14
2019-03-13T21:27:47.747Z,94943.53
2019-03-13T21:30:29.135Z,94936.20
2019-03-13T21:32:57.485Z,94945.38
2019-03-13T21:35:25.906Z,94950.80
2019-03-13T21:37:54.307Z,94941.19
2019-03-13T21:40:26.073Z,94948.84
2019-03-13T21:42:55.170Z,94938.91
2019-03-13T21:45:23.313Z,94949.43
2019-03-13T21:47:51.229Z,94941.17
2019-03-13T21:50:19.580Z,94930.45
2019-03-13T21:52:47.938Z,94932.65
2019-03-13T21:55:16.284Z,94940.69
2019-03-13T21:57:44.712Z,94951.30
2019-03-13T22:02:42.004Z,94941.28
2019-03-13T22:05:10.345Z,94941.08
2019-03-13T22:10:12.991Z,94946.56
2019-03-13T22:12:41.526Z,94949.19
2019-03-13T22:15:13.886Z,94946.66
2019-03-13T22:17:42.223Z,94949.02
2019-03-13T22:20:11.603Z,94939.98
2019-03-13T22:22:39.985Z,94928.09
2019-03-13T22:27:47.526Z,94953.53
2019-03-13T22:30:19.212Z,94942.75
2019-03-13T22:32:47.572Z,94947.05
2019-03-13T22:35:15.864Z,94948.87
2019-03-13T22:37:44.214Z,94937.88
2019-03-13T22:40:12.627Z,94934.52
2019-03-13T22:42:40.926Z,94937.12
2019-03-13T22:47:43.924Z,94928.73
2019-03-13T22:50:16.692Z,94928.53
2019-03-13T22:52:45.993Z,94930.13
2019-03-13T22:55:14.309Z,94935.00
2019-03-13T22:57:42.649Z,94939.70
2019-03-13T23:00:19.002Z,94943.04
2019-03-13T23:02:48.323Z,94959.21
2019-03-13T23:05:16.671Z,94944.58
2019-03-13T23:10:33.305Z,94952.61
2019-03-13T23:13:01.648Z,94957.00
2019-03-13T23:15:29.979Z,94960.03
2019-03-13T23:18:02.965Z,94957.67
2019-03-13T23:20:32.256Z,94966.45
2019-03-13T23:23:00.617Z,94967.97
2019-03-13T23:25:28.944Z,94963.06
2019-03-13T23:27:57.605Z,94957.66
2019-03-13T23:30:25.947Z,94961.99
2019-03-13T23:32:55.214Z,94953.17
2019-03-13T23:35:23.550Z,94955.03
2019-03-13T23:37:51.894Z,94951.50
2019-03-13T23:40:20.236Z,94949.10
2019-03-13T23:42:48.585Z,94945.99
2019-03-13T23:45:16.921Z,94948.45
2019-03-13T23:47:45.312Z,94943.98
2019-03-13T23:50:13.672Z,94945.69
2019-03-13T23:55:16.305Z,94964.57
2019-03-13T23:57:45.606Z,94951.23
